Time;durP1;ratioP1;P1;durP2;ratioP2;P2;SDS_P1;SDS_P2;PMS_P1;PMS_P2;Temp;Humidity;BMP_temperature;BMP_pressure;BME280_temperature;BME280_humidity;BME280_pressure;Samples;Min_cycle;Max_cycle;Signal;HPM_P1;HPM_P2
2021/09/07 00:00:14;;;;;;;16.00;8.23;;;;;;;;;;5099722;28;20040;-56
2021/09/07 00:02:41;;;;;;;19.60;7.63;;;;;;;;;;5102489;28;20165;-55
2021/09/07 00:05:09;;;;;;;19.83;8.27;;;;;;;;;;5100365;27;20036;-56
2021/09/07 00:07:35;;;;;;;18.13;8.70;;;;;;;;;;5102498;28;20048;-56
2021/09/07 00:10:01;;;;;;;19.67;8.32;;;;;;;;;;5098689;28;20051;-56
2021/09/07 00:12:28;;;;;;;18.35;8.52;;;;;;;;;;5123730;27;20046;-56
2021/09/07 00:14:54;;;;;;;19.02;8.50;;;;;;;;;;5114242;27;20035;-55
2021/09/07 00:17:22;;;;;;;17.33;8.68;;;;;;;;;;5102642;28;20040;-55
2021/09/07 00:19:49;;;;;;;19.13;8.77;;;;;;;;;;5100348;28;20062;-56
2021/09/07 00:22:15;;;;;;;20.48;8.27;;;;;;;;;;5101214;28;20048;-56
2021/09/07 00:24:42;;;;;;;17.88;8.07;;;;;;;;;;5100794;28;20040;-55
2021/09/07 00:27:08;;;;;;;15.13;8.23;;;;;;;;;;5101823;28;20149;-52
2021/09/07 00:29:35;;;;;;;17.42;8.65;;;;;;;;;;5102970;28;20032;-55
2021/09/07 00:32:01;;;;;;;16.70;8.35;;;;;;;;;;5102052;27;20044;-55
2021/09/07 00:34:30;;;;;;;16.80;8.45;;;;;;;;;;5104898;28;20048;-55
2021/09/07 00:36:57;;;;;;;22.10;8.65;;;;;;;;;;5102441;27;20120;-55
2021/09/07 00:39:23;;;;;;;17.45;8.50;;;;;;;;;;5102247;28;20032;-56
2021/09/07 00:41:52;;;;;;;17.88;8.57;;;;;;;;;;5112236;28;20149;-55
2021/09/07 00:44:23;;;;;;;21.08;8.50;;;;;;;;;;5124294;27;20044;-56
2021/09/07 00:46:52;;;;;;;17.52;8.98;;;;;;;;;;5118233;27;20055;-57
2021/09/07 00:49:19;;;;;;;16.55;8.35;;;;;;;;;;5122685;27;20062;-53
2021/09/07 00:51:49;;;;;;;21.77;9.30;;;;;;;;;;5110406;27;20055;-54
2021/09/07 00:54:16;;;;;;;16.98;8.73;;;;;;;;;;5103947;28;20035;-56
2021/09/07 00:56:43;;;;;;;18.83;9.25;;;;;;;;;;5112901;27;20039;-56
2021/09/07 00:59:10;;;;;;;22.85;9.88;;;;;;;;;;5100869;28;20048;-54
2021/09/07 01:01:36;;;;;;;19.60;9.13;;;;;;;;;;5102500;28;20039;-54
2021/09/07 01:04:03;;;;;;;17.88;9.25;;;;;;;;;;5120849;27;20036;-55
2021/09/07 01:06:29;;;;;;;19.45;9.48;;;;;;;;;;5118398;27;20116;-53
2021/09/07 01:08:58;;;;;;;24.38;9.93;;;;;;;;;;5121557;27;20055;-55
2021/09/07 01:11:24;;;;;;;21.58;9.52;;;;;;;;;;5106745;27;20047;-55
2021/09/07 01:13:51;;;;;;;20.05;9.77;;;;;;;;;;5116530;27;20051;-55
2021/09/07 01:16:17;;;;;;;20.70;9.43;;;;;;;;;;5121172;27;20043;-57
2021/09/07 01:18:44;;;;;;;18.50;9.70;;;;;;;;;;5103306;27;20043;-53
2021/09/07 01:21:11;;;;;;;20.60;9.93;;;;;;;;;;5100311;27;20036;-53
2021/09/07 01:23:38;;;;;;;23.98;9.43;;;;;;;;;;5098318;28;20050;-54
2021/09/07 01:26:06;;;;;;;23.05;9.30;;;;;;;;;;5101511;28;20058;-55
2021/09/07 01:28:33;;;;;;;20.15;10.10;;;;;;;;;;5100825;27;20050;-56
2021/09/07 01:31:00;;;;;;;18.65;9.00;;;;;;;;;;5101098;28;20033;-56
2021/09/07 01:33:26;;;;;;;21.45;8.57;;;;;;;;;;5100400;27;20105;-54
2021/09/07 01:35:55;;;;;;;16.60;9.05;;;;;;;;;;5103135;27;20067;-54
2021/09/07 01:38:21;;;;;;;23.20;9.07;;;;;;;;;;5106065;27;20058;-54
2021/09/07 01:40:47;;;;;;;18.15;8.68;;;;;;;;;;5123139;27;20032;-54
2021/09/07 01:43:16;;;;;;;19.30;9.32;;;;;;;;;;5105619;27;20047;-54
2021/09/07 01:45:44;;;;;;;21.35;9.02;;;;;;;;;;5122530;27;20044;-55
2021/09/07 01:48:11;;;;;;;;;;;;;;;;;;5118569;27;20087;-54
2021/09/07 01:50:37;;;;;;;18.70;9.02;;;;;;;;;;5100365;28;19919;-56
2021/09/07 01:53:04;;;;;;;20.38;8.45;;;;;;;;;;5101518;28;20066;-53
2021/09/07 01:55:30;;;;;;;19.35;8.80;;;;;;;;;;5098673;28;20052;-56
2021/09/07 01:57:57;;;;;;;17.38;8.13;;;;;;;;;;5102652;28;20093;-52
2021/09/07 02:00:25;;;;;;;18.77;8.63;;;;;;;;;;5099335;28;20089;-52
2021/09/07 02:02:51;;;;;;;17.83;8.88;;;;;;;;;;5102036;28;20047;-57
2021/09/07 02:05:18;;;;;;;19.35;9.30;;;;;;;;;;5099282;28;20144;-56
2021/09/07 02:07:45;;;;;;;18.38;9.50;;;;;;;;;;5101259;28;20055;-55
2021/09/07 02:10:11;;;;;;;16.90;8.75;;;;;;;;;;5113224;27;20040;-55
2021/09/07 02:12:38;;;;;;;19.13;8.80;;;;;;;;;;5125193;28;20036;-56
2021/09/07 02:15:05;;;;;;;20.15;8.55;;;;;;;;;;5119320;28;20046;-56
2021/09/07 02:17:37;;;;;;;20.77;9.90;;;;;;;;;;5122407;28;20050;-54
2021/09/07 02:20:04;;;;;;;19.52;9.85;;;;;;;;;;5116282;28;20046;-54
2021/09/07 02:22:31;;;;;;;20.48;9.30;;;;;;;;;;5124598;27;20052;-55
2021/09/07 02:24:57;;;;;;;19.13;9.95;;;;;;;;;;5120558;27;20058;-52
2021/09/07 02:27:24;;;;;;;20.63;9.45;;;;;;;;;;5124704;27;20130;-54
2021/09/07 02:29:50;;;;;;;23.00;10.05;;;;;;;;;;5118943;27;20124;-53
2021/09/07 02:32:17;;;;;;;20.23;9.80;;;;;;;;;;5103063;28;20046;-54
2021/09/07 02:34:45;;;;;;;23.08;10.98;;;;;;;;;;5102444;28;20036;-55
2021/09/07 02:37:12;;;;;;;22.77;10.18;;;;;;;;;;5123495;27;20051;-56
2021/09/07 02:39:39;;;;;;;23.45;9.65;;;;;;;;;;5124105;27;20031;-54
2021/09/07 02:42:05;;;;;;;19.92;9.35;;;;;;;;;;5120629;27;20046;-52
2021/09/07 02:44:32;;;;;;;19.73;9.02;;;;;;;;;;5123870;27;20051;-51
2021/09/07 02:46:59;;;;;;;20.15;9.52;;;;;;;;;;5104786;27;20040;-48
2021/09/07 02:49:25;;;;;;;19.98;9.48;;;;;;;;;;5104111;28;20028;-56
2021/09/07 02:51:53;;;;;;;19.70;9.30;;;;;;;;;;5111345;27;20035;-51
2021/09/07 02:54:20;;;;;;;20.40;9.93;;;;;;;;;;5123054;27;20047;-55
2021/09/07 02:56:48;;;;;;;21.02;10.45;;;;;;;;;;5101969;27;20036;-51
2021/09/07 02:59:15;;;;;;;26.40;9.60;;;;;;;;;;5103524;28;20040;-53
2021/09/07 03:01:41;;;;;;;20.05;9.18;;;;;;;;;;5107059;28;20050;-56
2021/09/07 03:04:08;;;;;;;20.08;9.57;;;;;;;;;;5123037;27;20043;-56
2021/09/07 03:06:34;;;;;;;20.17;9.65;;;;;;;;;;5119746;27;20045;-55
2021/09/07 03:09:02;;;;;;;22.27;9.32;;;;;;;;;;5124473;27;20039;-54
2021/09/07 03:11:29;;;;;;;19.15;9.07;;;;;;;;;;5118627;27;20065;-56
2021/09/07 03:13:55;;;;;;;17.88;8.48;;;;;;;;;;5104674;28;20047;-56
2021/09/07 03:16:22;;;;;;;19.95;9.60;;;;;;;;;;5100678;28;20043;-54
2021/09/07 03:18:49;;;;;;;26.38;10.05;;;;;;;;;;5102435;27;20032;-57
2021/09/07 03:21:16;;;;;;;23.38;9.15;;;;;;;;;;5103529;28;20086;-54
2021/09/07 03:23:42;;;;;;;18.95;9.02;;;;;;;;;;5089045;28;20040;-55
2021/09/07 03:26:12;;;;;;;19.52;9.02;;;;;;;;;;5101763;28;20039;-54
2021/09/07 03:28:38;;;;;;;19.05;9.18;;;;;;;;;;5115551;27;20071;-53
2021/09/07 03:31:05;;;;;;;18.67;9.30;;;;;;;;;;5123768;27;20147;-55
2021/09/07 03:33:31;;;;;;;18.63;9.15;;;;;;;;;;5119872;27;20065;-50
2021/09/07 03:35:58;;;;;;;21.02;9.50;;;;;;;;;;5122072;27;20050;-53
2021/09/07 03:38:24;;;;;;;18.92;8.85;;;;;;;;;;5109547;27;20174;-53
2021/09/07 03:40:51;;;;;;;20.92;8.73;;;;;;;;;;5120656;27;20036;-56
2021/09/07 03:43:19;;;;;;;19.98;8.30;;;;;;;;;;5107060;28;20039;-53
2021/09/07 03:45:45;;;;;;;19.00;8.48;;;;;;;;;;5124460;27;20035;-56
2021/09/07 03:48:12;;;;;;;21.95;8.05;;;;;;;;;;5117476;27;20035;-55
2021/09/07 03:50:38;;;;;;;18.45;8.90;;;;;;;;;;5128163;27;20031;-53
2021/09/07 03:53:05;;;;;;;16.38;8.23;;;;;;;;;;5117785;27;20051;-51
2021/09/07 03:55:32;;;;;;;16.17;7.45;;;;;;;;;;5112005;28;20032;-54
2021/09/07 03:57:58;;;;;;;18.27;7.93;;;;;;;;;;5101410;28;20051;-55
2021/09/07 04:00:26;;;;;;;21.80;8.48;;;;;;;;;;5101905;27;20040;-55
2021/09/07 04:02:53;;;;;;;18.33;7.90;;;;;;;;;;5103431;28;20117;-53
2021/09/07 04:05:19;;;;;;;18.67;8.18;;;;;;;;;;5117599;27;20035;-53
2021/09/07 04:07:47;;;;;;;18.05;8.63;;;;;;;;;;5120852;27;20055;-51
2021/09/07 04:10:13;;;;;;;18.97;9.43;;;;;;;;;;5116339;27;20096;-51
2021/09/07 04:12:40;;;;;;;18.67;8.55;;;;;;;;;;5121509;27;20050;-52
2021/09/07 04:15:07;;;;;;;16.40;8.38;;;;;;;;;;5104567;27;20063;-54
2021/09/07 04:17:37;;;;;;;16.65;8.52;;;;;;;;;;5101730;27;20124;-53
2021/09/07 04:20:05;;;;;;;19.75;8.80;;;;;;;;;;5098221;27;20069;-54
2021/09/07 04:22:31;;;;;;;20.20;8.60;;;;;;;;;;5103168;27;20125;-58
2021/09/07 04:24:58;;;;;;;19.15;8.30;;;;;;;;;;5109269;27;20054;-52
2021/09/07 04:27:24;;;;;;;20.02;8.45;;;;;;;;;;5123628;27;20046;-51
2021/09/07 04:29:51;;;;;;;18.20;8.65;;;;;;;;;;5118155;27;20031;-53
2021/09/07 04:32:17;;;;;;;24.13;8.77;;;;;;;;;;5122351;27;20050;-51
2021/09/07 04:34:45;;;;;;;17.58;8.57;;;;;;;;;;5119892;27;20052;-54
2021/09/07 04:37:12;;;;;;;21.42;9.77;;;;;;;;;;5123692;27;20043;-51
2021/09/07 04:39:38;;;;;;;24.25;9.52;;;;;;;;;;5107410;27;20039;-51
2021/09/07 04:42:05;;;;;;;18.35;8.73;;;;;;;;;;5122107;27;20056;-52
2021/09/07 04:44:31;;;;;;;19.60;8.65;;;;;;;;;;5107207;27;20028;-54
2021/09/07 04:46:59;;;;;;;23.08;9.10;;;;;;;;;;5109045;27;20063;-54
2021/09/07 04:49:25;;;;;;;19.80;8.48;;;;;;;;;;5106962;27;20084;-53
2021/09/07 04:51:53;;;;;;;19.63;8.70;;;;;;;;;;5109683;27;20039;-52
2021/09/07 04:54:19;;;;;;;21.37;9.03;;;;;;;;;;5113672;27;20036;-49
2021/09/07 04:56:46;;;;;;;16.75;8.05;;;;;;;;;;5109000;27;20057;-55
2021/09/07 04:59:12;;;;;;;20.05;8.43;;;;;;;;;;5110941;27;20039;-52
2021/09/07 05:01:39;;;;;;;17.58;8.27;;;;;;;;;;5117183;27;20043;-53
2021/09/07 05:04:05;;;;;;;21.60;8.82;;;;;;;;;;5109953;27;20039;-54
2021/09/07 05:06:35;;;;;;;19.17;8.60;;;;;;;;;;5106788;27;20055;-54
2021/09/07 05:09:03;;;;;;;20.52;8.90;;;;;;;;;;5120733;27;20059;-54
2021/09/07 05:11:30;;;;;;;21.83;8.47;;;;;;;;;;5107816;27;20047;-52
2021/09/07 05:13:56;;;;;;;18.58;8.57;;;;;;;;;;5111639;28;20272;-55
2021/09/07 05:16:24;;;;;;;20.02;8.75;;;;;;;;;;5107251;27;20056;-52
2021/09/07 05:18:50;;;;;;;17.88;8.73;;;;;;;;;;5111233;27;20024;-53
2021/09/07 05:21:17;;;;;;;22.42;8.52;;;;;;;;;;5105391;27;20035;-56
2021/09/07 05:23:43;;;;;;;20.42;8.88;;;;;;;;;;5111974;27;20044;-54
2021/09/07 05:26:11;;;;;;;19.83;8.82;;;;;;;;;;5110191;27;20028;-56
2021/09/07 05:28:38;;;;;;;19.27;8.52;;;;;;;;;;5107891;27;20035;-53
2021/09/07 05:31:05;;;;;;;23.77;9.45;;;;;;;;;;5113953;27;20051;-52
2021/09/07 05:33:31;;;;;;;19.13;8.65;;;;;;;;;;5111503;27;20055;-54
2021/09/07 05:35:58;;;;;;;18.80;8.60;;;;;;;;;;5112395;27;20054;-50
2021/09/07 05:38:27;;;;;;;18.05;8.63;;;;;;;;;;5117827;27;20054;-55
2021/09/07 05:40:54;;;;;;;17.90;8.43;;;;;;;;;;5119383;27;20039;-54
2021/09/07 05:43:21;;;;;;;20.45;8.60;;;;;;;;;;5112325;27;20063;-53
2021/09/07 05:45:48;;;;;;;22.50;8.50;;;;;;;;;;5103411;28;20046;-55
2021/09/07 05:48:15;;;;;;;19.73;8.73;;;;;;;;;;5109143;27;20035;-53
2021/09/07 05:50:41;;;;;;;18.73;8.23;;;;;;;;;;5111495;27;20053;-53
2021/09/07 05:53:08;;;;;;;20.92;9.38;;;;;;;;;;5110475;27;20051;-53
2021/09/07 05:55:36;;;;;;;20.90;9.10;;;;;;;;;;5107437;27;20036;-56
2021/09/07 05:58:02;;;;;;;25.10;9.83;;;;;;;;;;5115377;27;20077;-54
2021/09/07 06:00:32;;;;;;;18.85;9.45;;;;;;;;;;5106553;27;20043;-55
2021/09/07 06:03:02;;;;;;;22.77;10.00;;;;;;;;;;5114701;27;20065;-51
2021/09/07 06:05:28;;;;;;;21.13;9.35;;;;;;;;;;5106009;28;20035;-54
2021/09/07 06:07:55;;;;;;;18.42;9.20;;;;;;;;;;5111180;28;20139;-54
2021/09/07 06:10:21;;;;;;;17.77;8.77;;;;;;;;;;5103711;28;20095;-50
2021/09/07 06:12:48;;;;;;;27.52;9.82;;;;;;;;;;5120124;27;20028;-52
2021/09/07 06:15:15;;;;;;;19.73;8.25;;;;;;;;;;5107452;28;20036;-54
2021/09/07 06:17:42;;;;;;;21.58;9.43;;;;;;;;;;5101698;28;20044;-54
2021/09/07 06:20:10;;;;;;;20.80;9.23;;;;;;;;;;5097423;28;20036;-55
2021/09/07 06:22:40;;;;;;;25.60;9.60;;;;;;;;;;5100797;28;20047;-52
2021/09/07 06:25:10;;;;;;;28.10;9.25;;;;;;;;;;5093612;28;20051;-54
2021/09/07 06:27:37;;;;;;;21.15;9.38;;;;;;;;;;5123404;27;20063;-54
2021/09/07 06:30:04;;;;;;;21.80;9.47;;;;;;;;;;5107693;28;20103;-56
2021/09/07 06:32:31;;;;;;;23.15;9.13;;;;;;;;;;5098896;28;20032;-53
2021/09/07 06:34:59;;;;;;;25.35;10.10;;;;;;;;;;5097069;28;20040;-54
2021/09/07 06:37:26;;;;;;;24.13;10.25;;;;;;;;;;5100753;28;20036;-51
2021/09/07 06:39:56;;;;;;;23.05;10.20;;;;;;;;;;5102113;28;20054;-49
2021/09/07 06:42:22;;;;;;;20.13;9.82;;;;;;;;;;5101513;27;20043;-52
2021/09/07 06:44:49;;;;;;;23.58;10.30;;;;;;;;;;5113235;28;20044;-54
2021/09/07 06:47:17;;;;;;;22.45;10.00;;;;;;;;;;5102378;28;20048;-53
2021/09/07 06:49:44;;;;;;;;;;;;;;;;;;5098516;28;20123;-52
2021/09/07 06:52:12;;;;;;;33.08;15.38;;;;;;;;;;5101509;28;19934;-55
2021/09/07 06:54:38;;;;;;;40.08;19.20;;;;;;;;;;5100426;27;20044;-55
2021/09/07 06:57:12;;;;;;;31.17;14.15;;;;;;;;;;5116090;27;20036;-56
2021/09/07 06:59:38;;;;;;;27.30;12.07;;;;;;;;;;5123686;27;20035;-51
2021/09/07 07:02:05;;;;;;;26.80;12.00;;;;;;;;;;5118893;27;20036;-57
2021/09/07 07:04:32;;;;;;;31.88;11.73;;;;;;;;;;5123177;27;20047;-54
2021/09/07 07:07:00;;;;;;;25.73;10.65;;;;;;;;;;5104058;27;20039;-55
2021/09/07 07:09:28;;;;;;;28.77;11.65;;;;;;;;;;5103609;27;20124;-56
2021/09/07 07:11:54;;;;;;;25.38;11.60;;;;;;;;;;5105807;28;20039;-57
2021/09/07 07:14:21;;;;;;;27.92;11.75;;;;;;;;;;5104044;28;20116;-55
2021/09/07 07:16:51;;;;;;;27.10;12.25;;;;;;;;;;5100961;27;20117;-55
2021/09/07 07:19:18;;;;;;;29.60;12.60;;;;;;;;;;5104602;28;20068;-56
2021/09/07 07:21:48;;;;;;;28.90;12.18;;;;;;;;;;5101235;28;20144;-50
2021/09/07 07:24:16;;;;;;;24.95;11.93;;;;;;;;;;5104855;28;20047;-55
2021/09/07 07:26:46;;;;;;;26.20;11.38;;;;;;;;;;5101058;27;20032;-55
2021/09/07 07:29:13;;;;;;;25.70;12.00;;;;;;;;;;5103161;28;20122;-55
2021/09/07 07:31:39;;;;;;;27.00;11.95;;;;;;;;;;5099959;28;20141;-55
2021/09/07 07:34:06;;;;;;;32.05;12.48;;;;;;;;;;5105549;28;20044;-53
2021/09/07 07:36:33;;;;;;;29.65;12.93;;;;;;;;;;5100760;28;20072;-55
2021/09/07 07:39:00;;;;;;;32.08;12.35;;;;;;;;;;5102284;28;20040;-56
2021/09/07 07:41:26;;;;;;;28.13;13.43;;;;;;;;;;5103102;28;20040;-56
2021/09/07 07:43:54;;;;;;;46.78;20.77;;;;;;;;;;5117876;27;20169;-56
2021/09/07 07:46:21;;;;;;;40.72;17.40;;;;;;;;;;5123289;27;20112;-55
2021/09/07 07:48:47;;;;;;;30.58;13.55;;;;;;;;;;5119042;27;20043;-53
2021/09/07 07:51:14;;;;;;;27.20;12.40;;;;;;;;;;5114219;27;20043;-58
2021/09/07 07:53:41;;;;;;;26.52;12.60;;;;;;;;;;5106658;27;20044;-55
2021/09/07 07:56:09;;;;;;;27.55;12.90;;;;;;;;;;5102772;28;20045;-57
2021/09/07 07:58:36;;;;;;;26.50;12.52;;;;;;;;;;5102279;27;20047;-54
2021/09/07 08:01:04;;;;;;;26.15;12.57;;;;;;;;;;5104672;28;20035;-56
2021/09/07 08:03:30;;;;;;;32.05;13.15;;;;;;;;;;5107646;28;20047;-57
2021/09/07 08:05:58;;;;;;;33.55;12.68;;;;;;;;;;5123451;27;20119;-55
2021/09/07 08:08:25;;;;;;;30.30;13.07;;;;;;;;;;5119419;27;20043;-54
2021/09/07 08:10:51;;;;;;;35.38;13.13;;;;;;;;;;5116929;27;20264;-56
2021/09/07 08:13:19;;;;;;;35.28;13.15;;;;;;;;;;5102679;28;20039;-56
2021/09/07 08:15:47;;;;;;;30.93;13.13;;;;;;;;;;5121527;27;20039;-55
2021/09/07 08:18:14;;;;;;;;;;;;;;;;;;5118931;27;20272;-55
2021/09/07 08:20:43;;;;;;;27.58;13.20;;;;;;;;;;5101534;28;19927;-57
2021/09/07 08:23:09;;;;;;;28.92;12.95;;;;;;;;;;5102844;27;20060;-56
2021/09/07 08:25:36;;;;;;;29.58;14.27;;;;;;;;;;5099881;27;20043;-57
2021/09/07 08:28:02;;;;;;;28.20;13.98;;;;;;;;;;5102154;28;20055;-56
2021/09/07 08:30:29;;;;;;;27.85;12.93;;;;;;;;;;5099758;27;20048;-57
2021/09/07 08:32:56;;;;;;;32.75;13.65;;;;;;;;;;5102900;28;20036;-58
2021/09/07 08:35:22;;;;;;;26.60;13.20;;;;;;;;;;5114024;28;20057;-57
2021/09/07 08:37:53;;;;;;;28.88;13.40;;;;;;;;;;5123948;27;20028;-57
2021/09/07 08:40:21;;;;;;;30.20;12.98;;;;;;;;;;5118886;27;20259;-56
2021/09/07 08:42:47;;;;;;;28.05;12.00;;;;;;;;;;5123171;27;20032;-56
2021/09/07 08:45:16;;;;;;;25.77;12.60;;;;;;;;;;5109962;27;20040;-56
2021/09/07 08:47:44;;;;;;;28.80;11.18;;;;;;;;;;5102384;28;20052;-56
2021/09/07 08:50:10;;;;;;;26.27;10.75;;;;;;;;;;5106328;28;20048;-55
2021/09/07 08:52:39;;;;;;;31.90;11.25;;;;;;;;;;5121815;27;20043;-53
2021/09/07 08:55:10;;;;;;;24.02;11.57;;;;;;;;;;5104382;27;20028;-56
2021/09/07 08:57:38;;;;;;;28.30;11.65;;;;;;;;;;5101899;28;20040;-56
2021/09/07 09:00:07;;;;;;;27.48;12.00;;;;;;;;;;5099590;28;20081;-56
2021/09/07 09:02:39;;;;;;;25.42;10.95;;;;;;;;;;5101898;28;20036;-55
2021/09/07 09:05:06;;;;;;;31.10;12.55;;;;;;;;;;5099174;27;20044;-57
2021/09/07 09:07:33;;;;;;;25.58;11.05;;;;;;;;;;5121001;27;20059;-57
2021/09/07 09:10:00;;;;;;;22.70;9.65;;;;;;;;;;5121125;27;20047;-55
2021/09/07 09:12:32;;;;;;;27.33;11.13;;;;;;;;;;5096782;27;20043;-56
2021/09/07 09:14:59;;;;;;;30.23;12.48;;;;;;;;;;5100926;28;20054;-57
2021/09/07 09:17:28;;;;;;;32.45;11.73;;;;;;;;;;5100014;27;20040;-56
2021/09/07 09:19:57;;;;;;;21.58;10.25;;;;;;;;;;5101659;27;20125;-57
2021/09/07 09:22:23;;;;;;;;;;;;;;;;;;5099523;27;20056;-55
2021/09/07 09:24:50;;;;;;;32.63;12.68;;;;;;;;;;5100514;28;19931;-50
2021/09/07 09:27:16;;;;;;;27.75;11.77;;;;;;;;;;5097938;28;20047;-54
2021/09/07 09:29:44;;;;;;;28.88;11.60;;;;;;;;;;5101761;28;20056;-57
2021/09/07 09:32:12;;;;;;;26.35;10.70;;;;;;;;;;5108033;27;20035;-57
2021/09/07 09:34:40;;;;;;;20.50;9.93;;;;;;;;;;5122716;27;20039;-55
2021/09/07 09:37:07;;;;;;;31.52;12.00;;;;;;;;;;5112109;27;20055;-57
2021/09/07 09:39:38;;;;;;;25.90;9.82;;;;;;;;;;5102181;28;20047;-57
2021/09/07 09:42:05;;;;;;;22.45;9.85;;;;;;;;;;5096736;28;20082;-57
2021/09/07 09:44:31;;;;;;;23.75;10.70;;;;;;;;;;5123539;27;20039;-58
2021/09/07 09:47:02;;;;;;;22.25;10.38;;;;;;;;;;5117065;27;20055;-57
2021/09/07 09:49:30;;;;;;;26.75;10.98;;;;;;;;;;5122574;27;20036;-58
2021/09/07 09:52:01;;;;;;;23.83;11.00;;;;;;;;;;5115365;27;20152;-58
2021/09/07 09:54:28;;;;;;;26.02;11.05;;;;;;;;;;5105957;28;20040;-57
2021/09/07 09:56:56;;;;;;;21.63;11.18;;;;;;;;;;5119817;27;20032;-58
2021/09/07 09:59:23;;;;;;;25.08;10.70;;;;;;;;;;5117111;27;20051;-57
2021/09/07 10:01:50;;;;;;;21.23;11.50;;;;;;;;;;5102041;28;20044;-58
2021/09/07 10:04:20;;;;;;;20.40;10.13;;;;;;;;;;5116247;27;20092;-57
2021/09/07 10:06:51;;;;;;;21.75;11.07;;;;;;;;;;5123769;27;20043;-57
2021/09/07 10:09:18;;;;;;;34.92;12.82;;;;;;;;;;5100839;28;20055;-57
2021/09/07 10:11:48;;;;;;;29.42;13.23;;;;;;;;;;5102759;27;20050;-57
2021/09/07 10:14:17;;;;;;;27.73;11.95;;;;;;;;;;5099243;28;20052;-58
2021/09/07 10:16:57;;;;;;;27.00;11.10;;;;;;;;;;5105706;28;20117;-58
2021/09/07 10:19:45;;;;;;;26.27;10.73;;;;;;;;;;5113094;28;20042;-58
2021/09/07 10:24:59;;;;;;;21.90;10.55;;;;;;;;;;5098413;28;20147;-57
2021/09/07 10:27:55;;;;;;;31.70;10.73;;;;;;;;;;5099708;28;20058;-58
2021/09/07 10:30:36;;;;;;;23.85;10.68;;;;;;;;;;5036193;28;20037;-55
2021/09/07 10:33:22;;;;;;;26.75;10.88;;;;;;;;;;5092786;28;20028;-57
2021/09/07 10:36:03;;;;;;;30.15;12.27;;;;;;;;;;5119097;28;20044;-57
2021/09/07 10:38:41;;;;;;;21.15;10.45;;;;;;;;;;5121125;28;20039;-57
2021/09/07 10:41:08;;;;;;;22.75;11.13;;;;;;;;;;5100282;28;20040;-58
2021/09/07 10:44:01;;;;;;;25.15;11.63;;;;;;;;;;5104198;28;20047;-57
2021/09/07 10:46:47;;;;;;;23.38;10.23;;;;;;;;;;5066851;28;20055;-58
2021/09/07 10:49:15;;;;;;;23.52;11.77;;;;;;;;;;5100386;27;20566;-59
2021/09/07 10:51:56;;;;;;;19.85;10.23;;;;;;;;;;5124661;27;20051;-58
2021/09/07 10:54:25;;;;;;;22.90;10.57;;;;;;;;;;5120571;27;20031;-57
2021/09/07 10:56:56;;;;;;;19.13;10.02;;;;;;;;;;5125481;27;20039;-58
2021/09/07 10:59:41;;;;;;;22.98;10.93;;;;;;;;;;5120898;27;20031;-59
2021/09/07 11:02:26;;;;;;;25.48;9.82;;;;;;;;;;5084060;28;20036;-58
2021/09/07 11:04:53;;;;;;;20.60;10.20;;;;;;;;;;5080518;28;20051;-57
2021/09/07 11:07:46;;;;;;;21.85;10.93;;;;;;;;;;5083273;28;20096;-57
2021/09/07 11:10:30;;;;;;;22.83;10.13;;;;;;;;;;5032037;28;20048;-58
2021/09/07 11:13:03;;;;;;;24.23;10.90;;;;;;;;;;5081084;28;20040;-58
2021/09/07 11:15:32;;;;;;;27.80;12.18;;;;;;;;;;5080584;27;20052;-58
2021/09/07 11:17:59;;;;;;;24.02;10.50;;;;;;;;;;5083682;28;20043;-58
2021/09/07 11:20:30;;;;;;;20.92;10.65;;;;;;;;;;5079802;27;20037;-58
2021/09/07 11:22:57;;;;;;;19.17;9.55;;;;;;;;;;5082716;27;20049;-59
2021/09/07 11:25:25;;;;;;;23.97;9.87;;;;;;;;;;5079618;28;20076;-55
2021/09/07 11:27:54;;;;;;;22.50;9.33;;;;;;;;;;5061513;28;20047;-58
2021/09/07 11:30:25;;;;;;;23.58;10.63;;;;;;;;;;5063577;28;20051;-59
2021/09/07 11:32:55;;;;;;;28.95;10.75;;;;;;;;;;5077278;28;20044;-58
2021/09/07 11:35:21;;;;;;;21.77;10.43;;;;;;;;;;5082806;28;20044;-58
2021/09/07 11:37:49;;;;;;;20.02;10.30;;;;;;;;;;5081121;28;20029;-59
2021/09/07 11:40:17;;;;;;;23.63;10.10;;;;;;;;;;5081663;28;20050;-58
2021/09/07 11:42:44;;;;;;;19.58;10.30;;;;;;;;;;5079183;28;20297;-58
2021/09/07 11:45:17;;;;;;;19.10;9.18;;;;;;;;;;5083061;28;20048;-58
2021/09/07 11:47:43;;;;;;;20.48;9.80;;;;;;;;;;5079074;28;20174;-58
2021/09/07 11:50:10;;;;;;;22.77;9.65;;;;;;;;;;5083769;28;20040;-58
2021/09/07 11:52:36;;;;;;;21.73;10.40;;;;;;;;;;5078806;28;20105;-58
2021/09/07 11:55:07;;;;;;;28.98;11.80;;;;;;;;;;5084320;28;20050;-59
2021/09/07 11:57:44;;;;;;;19.75;9.10;;;;;;;;;;5081839;28;20044;-60
2021/09/07 12:00:13;;;;;;;24.25;10.73;;;;;;;;;;5086443;28;20047;-57
2021/09/07 12:02:39;;;;;;;22.98;10.25;;;;;;;;;;5100449;27;20040;-58
2021/09/07 12:05:06;;;;;;;21.33;10.50;;;;;;;;;;5102030;28;20189;-58
2021/09/07 12:07:33;;;;;;;25.67;9.52;;;;;;;;;;5102540;27;20051;-59
2021/09/07 12:10:05;;;;;;;22.27;11.13;;;;;;;;;;5101639;28;20040;-59
2021/09/07 12:12:35;;;;;;;22.27;9.38;;;;;;;;;;5118492;27;20112;-59
2021/09/07 12:15:15;;;;;;;18.52;9.15;;;;;;;;;;5101590;28;20108;-59
2021/09/07 12:17:45;;;;;;;18.77;9.95;;;;;;;;;;5100088;28;20047;-59
2021/09/07 12:20:13;;;;;;;23.10;10.27;;;;;;;;;;5101685;28;20056;-59
2021/09/07 12:22:40;;;;;;;17.27;8.00;;;;;;;;;;5100000;27;20047;-58
2021/09/07 12:25:08;;;;;;;19.65;8.38;;;;;;;;;;5102074;28;20032;-58
2021/09/07 12:27:41;;;;;;;18.38;8.32;;;;;;;;;;5101727;28;20084;-58
2021/09/07 12:30:09;;;;;;;18.70;8.40;;;;;;;;;;5100777;27;20047;-58
2021/09/07 12:32:46;;;;;;;27.33;9.63;;;;;;;;;;5105429;27;20044;-59
2021/09/07 12:35:25;;;;;;;23.17;9.13;;;;;;;;;;5099715;27;20036;-58
2021/09/07 12:37:51;;;;;;;23.80;9.88;;;;;;;;;;5100676;27;20047;-60
2021/09/07 12:40:18;;;;;;;19.33;8.80;;;;;;;;;;5115415;27;20050;-60
2021/09/07 12:42:44;;;;;;;19.75;9.30;;;;;;;;;;5120735;27;20032;-58
2021/09/07 12:45:13;;;;;;;16.77;9.35;;;;;;;;;;5103298;27;20063;-59
2021/09/07 12:47:40;;;;;;;18.75;8.40;;;;;;;;;;5101552;27;20056;-59
2021/09/07 12:50:08;;;;;;;20.20;8.63;;;;;;;;;;5109573;27;20039;-58
2021/09/07 12:52:35;;;;;;;15.48;8.57;;;;;;;;;;5122679;27;20062;-57
2021/09/07 12:55:01;;;;;;;17.83;8.18;;;;;;;;;;5116136;27;20047;-59
2021/09/07 12:57:28;;;;;;;20.50;9.27;;;;;;;;;;5123196;27;20153;-58
2021/09/07 12:59:55;;;;;;;21.45;8.05;;;;;;;;;;5112938;27;20052;-58
2021/09/07 13:02:24;;;;;;;19.52;8.55;;;;;;;;;;5103701;28;20035;-59
2021/09/07 13:04:50;;;;;;;22.15;8.35;;;;;;;;;;5103986;27;20051;-60
2021/09/07 13:07:18;;;;;;;16.70;8.25;;;;;;;;;;5121015;28;20047;-58
2021/09/07 13:09:47;;;;;;;17.05;8.45;;;;;;;;;;5115382;27;20048;-58
2021/09/07 13:12:15;;;;;;;15.68;8.00;;;;;;;;;;5121854;27;20048;-58
2021/09/07 13:14:43;;;;;;;15.05;6.97;;;;;;;;;;5118668;27;20035;-59
2021/09/07 13:17:12;;;;;;;15.15;7.85;;;;;;;;;;5123039;27;20066;-59
2021/09/07 13:19:39;;;;;;;20.45;7.80;;;;;;;;;;5123086;27;20051;-59
2021/09/07 13:22:05;;;;;;;16.27;7.78;;;;;;;;;;5119690;27;20055;-59
2021/09/07 13:24:34;;;;;;;15.15;7.43;;;;;;;;;;5123162;27;20036;-59
2021/09/07 13:27:04;;;;;;;15.73;7.45;;;;;;;;;;5103380;27;20052;-59
2021/09/07 13:29:31;;;;;;;15.50;6.93;;;;;;;;;;5102547;28;20050;-60
2021/09/07 13:32:01;;;;;;;16.92;7.53;;;;;;;;;;5113594;27;20039;-59
2021/09/07 13:34:27;;;;;;;18.70;8.45;;;;;;;;;;5123789;27;20027;-59
2021/09/07 13:36:54;;;;;;;16.27;7.78;;;;;;;;;;5116040;27;20050;-59
2021/09/07 13:39:20;;;;;;;15.82;8.60;;;;;;;;;;5125303;27;20035;-60
2021/09/07 13:41:49;;;;;;;15.00;7.32;;;;;;;;;;5120014;27;20051;-59
2021/09/07 13:44:16;;;;;;;18.25;7.00;;;;;;;;;;5121809;27;20044;-59
2021/09/07 13:46:42;;;;;;;20.85;8.05;;;;;;;;;;5119410;27;20058;-60
2021/09/07 13:49:09;;;;;;;18.30;8.18;;;;;;;;;;5120858;27;20046;-60
2021/09/07 13:51:35;;;;;;;15.00;7.93;;;;;;;;;;5118202;27;20031;-59
2021/09/07 13:54:02;;;;;;;16.40;7.57;;;;;;;;;;5123076;27;20047;-59
2021/09/07 13:56:28;;;;;;;17.35;7.70;;;;;;;;;;5098981;27;20157;-59
2021/09/07 13:58:56;;;;;;;17.88;7.93;;;;;;;;;;5101141;28;20043;-58
2021/09/07 14:01:23;;;;;;;15.23;7.05;;;;;;;;;;5100013;27;20051;-59
2021/09/07 14:03:49;;;;;;;20.95;8.60;;;;;;;;;;5118001;27;20039;-59
2021/09/07 14:06:17;;;;;;;16.73;7.35;;;;;;;;;;5120612;27;20067;-59
2021/09/07 14:08:43;;;;;;;13.93;6.93;;;;;;;;;;5116984;28;20035;-59
2021/09/07 14:11:10;;;;;;;20.45;8.43;;;;;;;;;;5111673;28;20047;-58
2021/09/07 14:13:38;;;;;;;14.70;7.65;;;;;;;;;;5096726;28;20046;-58
2021/09/07 14:16:07;;;;;;;18.23;8.32;;;;;;;;;;5100017;28;20052;-58
2021/09/07 14:18:34;;;;;;;15.07;7.22;;;;;;;;;;5100201;28;20097;-59
2021/09/07 14:21:00;;;;;;;14.77;7.47;;;;;;;;;;5103795;28;20054;-59
2021/09/07 14:23:27;;;;;;;17.85;8.45;;;;;;;;;;5102698;27;20043;-59
2021/09/07 14:25:54;;;;;;;17.20;7.65;;;;;;;;;;5102812;28;20047;-59
2021/09/07 14:28:21;;;;;;;14.85;7.10;;;;;;;;;;5102575;27;20040;-59
2021/09/07 14:30:48;;;;;;;15.80;7.15;;;;;;;;;;5105833;27;20064;-59
2021/09/07 14:33:15;;;;;;;14.02;7.03;;;;;;;;;;5101639;28;20028;-59